createdAt,value
2023-03-24T00:04:11.688Z,12.13
2023-03-24T00:09:13.470Z,13.45
2023-03-24T00:14:15.267Z,11.81
2023-03-24T00:19:17.304Z,13.40
2023-03-24T00:24:20.174Z,12.98
2023-03-24T00:29:21.968Z,12.24
2023-03-24T00:34:23.852Z,12.24
2023-03-24T00:39:25.781Z,12.56
2023-03-24T00:44:27.697Z,12.54
2023-03-24T00:49:43.053Z,13.08
2023-03-24T00:54:45.982Z,11.97
2023-03-24T00:59:52.563Z,11.84
2023-03-24T01:04:56.422Z,12.72
2023-03-24T01:09:58.561Z,13.00
2023-03-24T01:15:02.953Z,12.57
2023-03-24T01:20:08.157Z,11.93
2023-03-24T01:25:14.172Z,12.25
2023-03-24T01:30:19.825Z,13.05
2023-03-24T01:35:23.658Z,12.37
2023-03-24T01:40:30.461Z,13.63
2023-03-24T01:45:41.316Z,13.81
2023-03-24T01:50:52.102Z,14.17
2023-03-24T01:55:55.796Z,8.32
2023-03-24T02:01:00.033Z,11.65
2023-03-24T02:06:28.126Z,11.51
2023-03-24T02:11:34.452Z,9.48
2023-03-24T02:16:45.720Z,11.52
2023-03-24T02:22:37.341Z,11.58
2023-03-24T02:28:13.495Z,9.98
2023-03-24T02:33:37.192Z,12.14
2023-03-24T02:38:48.695Z,12.90
2023-03-24T02:44:10.956Z,12.72
2023-03-24T02:49:34.938Z,12.91
2023-03-24T02:54:58.762Z,13.02
2023-03-24T03:00:13.726Z,8.63
2023-03-24T03:05:46.428Z,12.07
2023-03-24T03:10:53.518Z,12.63
2023-03-24T03:15:58.456Z,12.80
2023-03-24T03:21:10.311Z,10.99
2023-03-24T03:26:17.999Z,11.61
2023-03-24T03:31:30.102Z,11.55
2023-03-24T03:36:41.112Z,10.59
2023-03-24T03:41:43.639Z,9.92
2023-03-24T03:46:45.683Z,10.75
2023-03-24T03:51:55.797Z,10.66
2023-03-24T03:56:59.328Z,9.83
2023-03-24T04:02:46.987Z,10.50
2023-03-24T04:08:11.759Z,11.49
2023-03-24T04:14:13.138Z,11.12
2023-03-24T04:19:41.298Z,8.99
2023-03-24T04:24:51.799Z,8.67
2023-03-24T04:30:23.086Z,8.83
2023-03-24T04:35:33.954Z,8.37
2023-03-24T04:41:05.460Z,8.70
2023-03-24T04:46:09.613Z,8.73
2023-03-24T04:51:27.017Z,8.07
2023-03-24T04:56:49.261Z,10.88
2023-03-24T05:01:55.546Z,9.88
2023-03-24T05:07:23.516Z,9.58
2023-03-24T05:12:30.148Z,9.42
2023-03-24T05:17:53.072Z,9.28
2023-03-24T05:22:58.912Z,8.24
2023-03-24T05:28:01.095Z,8.25
2023-03-24T05:33:03.303Z,6.29
2023-03-24T05:38:05.629Z,7.27
2023-03-24T05:43:08.693Z,8.16
2023-03-24T05:48:15.319Z,10.42
2023-03-24T05:53:49.474Z,11.00
2023-03-24T05:58:58.738Z,11.80
2023-03-24T06:04:18.743Z,11.93
2023-03-24T06:09:21.795Z,12.28
2023-03-24T06:14:23.658Z,11.65
2023-03-24T06:19:38.551Z,12.00
2023-03-24T06:25:09.687Z,11.62
2023-03-24T06:30:17.669Z,11.84
2023-03-24T06:35:19.741Z,12.06
2023-03-24T06:40:35.193Z,11.48
2023-03-24T06:45:39.634Z,10.21
2023-03-24T06:50:44.952Z,11.20
2023-03-24T06:55:49.026Z,10.45
2023-03-24T07:00:51.763Z,10.97
2023-03-24T07:06:07.786Z,10.76
2023-03-24T07:11:10.188Z,11.52
2023-03-24T07:16:16.064Z,10.10
2023-03-24T07:21:18.456Z,11.28
2023-03-24T07:26:23.704Z,10.93
2023-03-24T07:31:37.810Z,11.03
2023-03-24T07:36:42.660Z,10.96
2023-03-24T07:41:49.091Z,11.04
2023-03-24T07:47:01.310Z,9.82
2023-03-24T07:52:06.488Z,9.73
2023-03-24T07:57:12.783Z,6.87
2023-03-24T08:02:21.171Z,8.41
2023-03-24T08:07:35.780Z,7.01
2023-03-24T08:12:37.551Z,7.96
2023-03-24T08:17:39.586Z,8.78
2023-03-24T08:22:43.030Z,10.24
2023-03-24T08:27:45.270Z,8.12
2023-03-24T08:32:49.688Z,10.32
2023-03-24T08:37:52.092Z,11.44
2023-03-24T08:42:57.556Z,11.45
2023-03-24T08:48:02.029Z,11.29
2023-03-24T08:53:04.709Z,6.92
2023-03-24T08:58:06.650Z,9.24
2023-03-24T09:03:18.081Z,8.99
2023-03-24T09:08:20.132Z,9.97
2023-03-24T09:13:22.259Z,11.21
2023-03-24T09:18:24.546Z,11.51
2023-03-24T09:23:29.087Z,9.53
2023-03-24T09:28:31.388Z,9.70
2023-03-24T09:33:35.011Z,10.21
2023-03-24T09:38:37.031Z,10.64
2023-03-24T09:44:08.005Z,9.12
2023-03-24T09:49:17.413Z,12.05
2023-03-24T09:54:28.207Z,12.01
2023-03-24T09:59:39.534Z,12.22
2023-03-24T10:04:41.715Z,13.02
2023-03-24T10:09:48.699Z,13.43
2023-03-24T10:15:30.824Z,13.52
2023-03-24T10:20:51.267Z,13.20
2023-03-24T10:26:14.636Z,9.95
2023-03-24T10:31:19.619Z,11.34
2023-03-24T10:36:23.201Z,11.69
2023-03-24T10:41:28.676Z,10.76
2023-03-24T10:46:32.138Z,9.39
2023-03-24T10:51:37.100Z,10.69
2023-03-24T10:56:41.931Z,11.46
2023-03-24T11:01:44.067Z,11.80
2023-03-24T11:07:20.999Z,11.15
2023-03-24T11:12:25.695Z,11.43
2023-03-24T11:17:27.570Z,11.69
2023-03-24T11:22:30.296Z,12.16
2023-03-24T11:27:32.090Z,12.39
2023-03-24T11:32:35.256Z,11.36
2023-03-24T11:37:37.603Z,11.87
2023-03-24T11:42:51.938Z,12.17
2023-03-24T11:47:59.028Z,10.10
2023-03-24T11:53:07.606Z,11.56
2023-03-24T11:58:16.070Z,12.91
2023-03-24T12:03:43.408Z,13.52
2023-03-24T12:09:08.330Z,13.33
2023-03-24T12:14:10.507Z,11.63
2023-03-24T12:19:24.412Z,10.27
2023-03-24T12:24:58.617Z,10.42
2023-03-24T12:30:33.622Z,10.67
2023-03-24T12:35:45.614Z,10.47
2023-03-24T12:41:05.263Z,7.45
2023-03-24T12:46:54.427Z,7.00
2023-03-24T12:52:15.089Z,7.49
2023-03-24T12:57:20.957Z,8.50
2023-03-24T13:02:30.499Z,12.11
2023-03-24T13:07:39.045Z,11.35
2023-03-24T13:13:08.829Z,13.12
2023-03-24T13:18:10.903Z,12.34
2023-03-24T13:23:21.773Z,11.14
2023-03-24T13:28:32.355Z,8.27
2023-03-24T13:33:37.211Z,10.18
2023-03-24T13:38:43.519Z,11.57
2023-03-24T13:43:51.704Z,11.97
2023-03-24T13:48:58.678Z,9.97
2023-03-24T13:54:16.428Z,9.18
2023-03-24T13:59:51.517Z,7.44
2023-03-24T14:05:11.522Z,6.80
2023-03-24T14:10:20.812Z,6.11
2023-03-24T14:15:27.481Z,6.53
2023-03-24T14:20:35.250Z,7.13
2023-03-24T14:25:37.296Z,7.96
2023-03-24T14:31:02.028Z,6.57
2023-03-24T14:36:06.708Z,6.31
2023-03-24T14:41:15.752Z,7.21
2023-03-24T14:46:20.586Z,6.91
2023-03-24T14:51:44.295Z,7.92
2023-03-24T14:56:52.878Z,7.86
2023-03-24T15:02:05.261Z,8.33
2023-03-24T15:07:11.455Z,9.40
2023-03-24T15:12:13.444Z,8.60
2023-03-24T15:17:22.872Z,6.77
2023-03-24T15:22:24.607Z,6.09
2023-03-24T15:27:29.000Z,7.00
2023-03-24T15:32:39.034Z,5.90
2023-03-24T15:37:47.854Z,7.99
2023-03-24T15:42:50.367Z,9.37
2023-03-24T15:47:54.744Z,9.55
2023-03-24T15:53:06.424Z,8.91
2023-03-24T15:59:09.920Z,6.34
2023-03-24T16:04:17.656Z,7.66
2023-03-24T16:09:22.411Z,5.63
2023-03-24T16:14:29.858Z,3.98
2023-03-24T16:19:32.818Z,4.55
2023-03-24T16:24:34.668Z,6.72
2023-03-24T16:29:36.856Z,4.88
2023-03-24T16:34:38.685Z,5.81
2023-03-24T16:39:40.484Z,7.38
2023-03-24T16:44:42.452Z,9.17
2023-03-24T16:49:44.376Z,9.91
2023-03-24T16:54:46.375Z,9.59
2023-03-24T16:59:48.156Z,7.17
2023-03-24T17:04:49.983Z,7.79
2023-03-24T17:09:51.808Z,7.68
2023-03-24T17:14:53.698Z,9.33
2023-03-24T17:19:57.988Z,8.52
2023-03-24T17:25:00.013Z,7.16
2023-03-24T17:30:02.204Z,6.12
2023-03-24T17:35:04.529Z,6.19
2023-03-24T17:40:09.802Z,7.64
2023-03-24T17:45:15.042Z,5.93
2023-03-24T17:50:17.332Z,5.55
2023-03-24T17:55:19.187Z,7.36
2023-03-24T18:00:21.317Z,6.53
2023-03-24T18:05:23.163Z,5.78
2023-03-24T18:10:25.011Z,5.51
2023-03-24T18:15:27.493Z,7.29
2023-03-24T18:20:32.022Z,7.92
2023-03-24T18:25:33.817Z,9.57
2023-03-24T18:30:35.965Z,9.15
2023-03-24T18:35:37.892Z,8.27
2023-03-24T18:40:40.222Z,7.53
2023-03-24T18:45:42.102Z,7.58
2023-03-24T18:50:43.995Z,7.71
2023-03-24T18:55:49.323Z,5.75
2023-03-24T19:00:54.320Z,7.77
2023-03-24T19:06:00.992Z,9.19
2023-03-24T19:11:03.295Z,6.50
2023-03-24T19:16:06.077Z,5.73
2023-03-24T19:21:08.099Z,7.27
2023-03-24T19:26:10.025Z,8.27
2023-03-24T19:31:15.315Z,8.86
2023-03-24T19:36:18.201Z,9.46
2023-03-24T19:41:20.067Z,8.05
2023-03-24T19:46:22.045Z,8.95
2023-03-24T19:51:24.230Z,9.60
2023-03-24T19:56:26.138Z,9.91
2023-03-24T20:01:34.745Z,10.15
2023-03-24T20:06:36.542Z,9.74
2023-03-24T20:11:40.338Z,9.54
2023-03-24T20:16:42.660Z,10.13
2023-03-24T20:21:44.643Z,9.94
2023-03-24T20:26:48.317Z,9.90
2023-03-24T20:31:50.602Z,9.58
2023-03-24T20:36:52.348Z,10.21
2023-03-24T20:41:54.131Z,10.44
2023-03-24T20:47:00.705Z,10.65
2023-03-24T20:52:02.396Z,10.82
2023-03-24T20:57:04.110Z,10.77
2023-03-24T21:02:06.550Z,10.14
2023-03-24T21:07:08.477Z,10.17
2023-03-24T21:12:10.250Z,10.17
2023-03-24T21:17:13.359Z,10.29
2023-03-24T21:22:15.419Z,7.27
2023-03-24T21:27:17.359Z,9.01
2023-03-24T21:32:19.037Z,9.33
2023-03-24T21:37:21.309Z,9.06
2023-03-24T21:42:23.831Z,9.13
2023-03-24T21:47:27.065Z,7.08
2023-03-24T21:52:29.678Z,8.02
2023-03-24T21:57:31.444Z,8.41
2023-03-24T22:02:34.883Z,9.31
2023-03-24T22:07:37.413Z,7.94
2023-03-24T22:12:39.795Z,7.42
2023-03-24T22:17:42.041Z,8.31
2023-03-24T22:22:46.124Z,9.59
2023-03-24T22:27:52.679Z,9.16
2023-03-24T22:32:54.703Z,9.95
2023-03-24T22:37:56.532Z,10.05
2023-03-24T22:42:58.253Z,9.61
2023-03-24T22:48:00.229Z,9.14
2023-03-24T22:53:02.019Z,9.41
2023-03-24T22:58:04.776Z,10.26
2023-03-24T23:03:06.765Z,9.65
2023-03-24T23:08:09.107Z,9.21
2023-03-24T23:13:11.563Z,9.73
2023-03-24T23:18:13.540Z,10.10
2023-03-24T23:23:15.447Z,9.30
2023-03-24T23:28:17.291Z,8.85
2023-03-24T23:33:22.154Z,8.90
2023-03-24T23:38:24.459Z,8.73
2023-03-24T23:43:26.209Z,8.92
2023-03-24T23:48:31.302Z,8.89
2023-03-24T23:53:33.983Z,9.25
2023-03-24T23:58:38.203Z,8.12
